ADDS METAR Data INFO
IDs: Format: Raw Decoded Include TAF

Data at: 1229 UTC 20 Jul 2018

METAR for:KRYW (Lago Vista/Allen Arp, TX, US)
Text:KRYW 201215Z AUTO 21006KT 10SM CLR 25/23 A3000 RMK AO2 T02500229
Temperature: 25.0°C ( 77°F)
Dewpoint: 22.9°C ( 73°F) [RH = 88%]
Pressure (altimeter):30.00 inches Hg (1016.0 mb)
Winds:from the SSW (210 degrees) at 7 MPH (6 knots; 3.1 m/s)
Visibility:10 or more sm (16+ km)
Ceiling:at least 12,000 feet AGL
Clouds:sky clear below 12,000 feet AGL
QC Flag:automated observation with no human augmentation